createdAt,value
2022-12-15T00:00:19.091Z,29.67
2022-12-15T00:03:04.453Z,30.15
2022-12-15T00:05:51.168Z,29.05
2022-12-15T00:08:36.824Z,29.77
2022-12-15T00:11:23.064Z,28.38
2022-12-15T00:14:08.739Z,28.63
2022-12-15T00:17:10.712Z,29.52
2022-12-15T00:19:55.893Z,31.00
2022-12-15T00:22:41.340Z,30.00
2022-12-15T00:25:26.827Z,29.65
2022-12-15T00:28:15.365Z,29.38
2022-12-15T00:31:02.719Z,28.95
2022-12-15T00:33:49.782Z,29.42
2022-12-15T00:36:35.039Z,28.02
2022-12-15T00:39:04.038Z,30.15
2022-12-15T00:41:32.382Z,30.48
2022-12-15T00:44:00.483Z,29.75
2022-12-15T00:46:45.696Z,29.90
2022-12-15T00:49:28.994Z,29.02
2022-12-15T00:52:15.184Z,26.67
2022-12-15T00:55:00.515Z,27.70
2022-12-15T00:57:45.782Z,26.90
2022-12-15T01:00:32.407Z,26.85
2022-12-15T01:03:17.604Z,27.65
2022-12-15T01:06:04.221Z,24.83
2022-12-15T01:08:49.540Z,27.38
2022-12-15T01:11:34.798Z,28.63
2022-12-15T01:14:20.178Z,27.48
2022-12-15T01:17:05.373Z,28.77
2022-12-15T01:19:50.660Z,33.45
2022-12-15T01:22:20.016Z,30.45
2022-12-15T01:24:47.979Z,32.25
2022-12-15T01:27:15.834Z,34.10
2022-12-15T01:29:44.067Z,32.75
2022-12-15T01:32:12.207Z,30.65
2022-12-15T01:34:40.512Z,31.30
2022-12-15T01:37:08.612Z,30.50
2022-12-15T01:39:55.374Z,31.17
2022-12-15T01:42:23.297Z,32.00
2022-12-15T01:44:53.321Z,29.35
2022-12-15T01:47:26.479Z,29.52
2022-12-15T01:49:55.988Z,31.17
2022-12-15T01:52:23.928Z,28.83
2022-12-15T01:54:57.126Z,28.48
2022-12-15T01:57:30.077Z,28.25
2022-12-15T02:00:02.696Z,27.67
2022-12-15T02:02:35.632Z,26.05
2022-12-15T02:05:09.194Z,26.90
2022-12-15T02:07:37.013Z,25.15
2022-12-15T02:10:10.255Z,27.80
2022-12-15T02:12:46.378Z,31.17
2022-12-15T02:15:21.652Z,33.95
2022-12-15T02:17:58.704Z,34.78
2022-12-15T02:20:52.454Z,31.92
2022-12-15T02:24:10.615Z,31.20
2022-12-15T02:27:14.131Z,30.90
2022-12-15T02:30:10.631Z,31.83
2022-12-15T02:32:44.347Z,28.50
2022-12-15T02:35:17.926Z,28.80
2022-12-15T02:37:49.858Z,28.95
2022-12-15T02:40:18.858Z,28.95
2022-12-15T02:42:52.566Z,28.83
2022-12-15T02:45:25.351Z,31.90
2022-12-15T02:48:01.881Z,29.38
2022-12-15T02:50:59.453Z,32.00
2022-12-15T02:53:46.991Z,32.08
2022-12-15T02:56:24.560Z,31.73
2022-12-15T02:59:04.028Z,34.72
2022-12-15T03:01:38.020Z,31.48
2022-12-15T03:04:09.485Z,30.48
2022-12-15T03:06:38.360Z,33.67
2022-12-15T03:09:06.546Z,30.77
2022-12-15T03:11:35.198Z,29.30
2022-12-15T03:14:03.083Z,33.30
2022-12-15T03:16:31.068Z,32.15
2022-12-15T03:19:00.560Z,33.72
2022-12-15T03:21:28.437Z,35.60
2022-12-15T03:23:56.376Z,45.08
2022-12-15T03:26:24.751Z,36.92
2022-12-15T03:28:52.806Z,40.75
2022-12-15T03:31:20.774Z,39.03
2022-12-15T03:33:48.843Z,36.63
2022-12-15T03:36:18.099Z,41.03
2022-12-15T03:38:46.069Z,37.67
2022-12-15T03:41:14.037Z,37.35
2022-12-15T03:43:42.126Z,35.22
2022-12-15T03:46:10.161Z,35.30
2022-12-15T03:48:38.465Z,37.53
2022-12-15T03:51:06.632Z,35.72
2022-12-15T03:53:36.280Z,31.45
2022-12-15T03:56:04.514Z,30.45
2022-12-15T03:58:32.587Z,28.58
2022-12-15T04:01:00.648Z,27.73
2022-12-15T04:03:29.077Z,28.60
2022-12-15T04:05:57.572Z,27.83
2022-12-15T04:08:26.952Z,27.30
2022-12-15T04:10:56.308Z,25.02
2022-12-15T04:13:24.259Z,25.85
2022-12-15T04:15:52.185Z,25.05
2022-12-15T04:18:20.379Z,26.38
2022-12-15T04:20:47.486Z,27.77
2022-12-15T04:23:18.401Z,24.88
2022-12-15T04:26:03.701Z,25.55
2022-12-15T04:28:50.816Z,26.15
2022-12-15T04:31:39.345Z,24.50
2022-12-15T04:34:29.532Z,24.13
2022-12-15T04:37:15.059Z,26.80
2022-12-15T04:40:04.614Z,29.20
2022-12-15T04:42:51.618Z,29.73
2022-12-15T04:45:41.733Z,27.35
2022-12-15T04:48:27.586Z,28.08
2022-12-15T04:51:13.566Z,27.70
2022-12-15T04:53:58.738Z,28.45
2022-12-15T04:56:44.651Z,30.65
2022-12-15T04:59:29.912Z,35.97
2022-12-15T05:02:17.042Z,35.17
2022-12-15T05:05:02.391Z,33.13
2022-12-15T05:07:47.399Z,28.98
2022-12-15T05:10:33.209Z,27.90
2022-12-15T05:13:23.266Z,28.00
2022-12-15T05:16:08.587Z,27.02
2022-12-15T05:18:55.882Z,26.38
2022-12-15T05:21:41.181Z,26.10
2022-12-15T05:24:27.021Z,24.75
2022-12-15T05:27:12.309Z,24.50
2022-12-15T05:29:57.739Z,32.58
2022-12-15T05:32:25.721Z,29.90
2022-12-15T05:34:55.248Z,27.10
2022-12-15T05:37:23.066Z,27.85
2022-12-15T05:39:50.987Z,29.25
2022-12-15T05:42:18.881Z,30.70
2022-12-15T05:44:46.871Z,34.13
2022-12-15T05:47:17.987Z,43.33
2022-12-15T05:49:45.823Z,38.40
2022-12-15T05:52:15.156Z,36.72
2022-12-15T05:54:43.028Z,32.17
2022-12-15T05:57:10.955Z,33.40
2022-12-15T05:59:38.925Z,33.85
2022-12-15T06:02:07.699Z,35.17
2022-12-15T06:04:35.837Z,47.78
2022-12-15T06:07:04.097Z,40.92
2022-12-15T06:09:33.399Z,42.70
2022-12-15T06:12:01.334Z,45.67
2022-12-15T06:14:29.222Z,45.35
2022-12-15T06:16:57.378Z,44.33
2022-12-15T06:19:25.244Z,46.67
2022-12-15T06:21:53.235Z,47.55
2022-12-15T06:24:21.409Z,45.03
2022-12-15T06:26:50.816Z,45.50
2022-12-15T06:29:19.014Z,48.40
2022-12-15T06:31:47.075Z,43.47
2022-12-15T06:34:17.207Z,45.42
2022-12-15T06:36:45.631Z,38.60
2022-12-15T06:39:15.302Z,40.95
2022-12-15T06:41:44.217Z,40.95
2022-12-15T06:44:16.207Z,40.65
2022-12-15T06:46:46.062Z,38.30
2022-12-15T06:49:14.991Z,38.35
2022-12-15T06:51:44.353Z,38.28
2022-12-15T06:54:13.009Z,37.72
2022-12-15T06:56:42.283Z,36.92
2022-12-15T06:59:12.670Z,38.42
2022-12-15T07:01:43.036Z,35.65
2022-12-15T07:04:11.655Z,34.55
2022-12-15T07:06:40.857Z,40.60
2022-12-15T07:09:13.595Z,36.30
2022-12-15T07:11:41.717Z,30.67
2022-12-15T07:14:10.998Z,33.50
2022-12-15T07:16:39.322Z,32.17
2022-12-15T07:19:11.805Z,31.40
2022-12-15T07:21:39.781Z,31.35
2022-12-15T07:24:08.553Z,31.90
2022-12-15T07:26:36.687Z,36.38
2022-12-15T07:29:04.654Z,40.17
2022-12-15T07:31:32.735Z,38.55
2022-12-15T07:34:00.723Z,33.78
2022-12-15T07:36:30.132Z,31.80
2022-12-15T07:39:01.888Z,33.55
2022-12-15T07:41:30.303Z,31.50
2022-12-15T07:43:58.694Z,32.40
2022-12-15T07:46:27.467Z,30.83
2022-12-15T07:48:55.647Z,30.95
2022-12-15T07:51:23.547Z,35.20
2022-12-15T07:53:53.253Z,31.88
2022-12-15T07:56:21.809Z,29.38
2022-12-15T07:58:50.139Z,30.58
2022-12-15T08:01:18.192Z,29.80
2022-12-15T08:03:46.776Z,37.95
2022-12-15T08:06:16.272Z,34.97
2022-12-15T08:08:50.609Z,35.65
2022-12-15T08:11:22.329Z,35.63
2022-12-15T08:14:10.602Z,35.70
2022-12-15T08:16:39.275Z,34.67
2022-12-15T08:19:09.048Z,35.75
2022-12-15T08:21:37.064Z,35.40
2022-12-15T08:24:05.523Z,37.75
2022-12-15T08:26:34.938Z,35.92
2022-12-15T08:29:48.825Z,34.72
2022-12-15T08:31:53.286Z,37.17
2022-12-15T08:34:21.626Z,36.85
2022-12-15T08:36:49.566Z,36.00
2022-12-15T08:39:17.577Z,41.28
2022-12-15T08:41:47.791Z,42.55
2022-12-15T08:44:17.187Z,38.75
2022-12-15T08:46:45.597Z,42.95
2022-12-15T08:49:19.527Z,40.72
2022-12-15T08:51:50.000Z,45.42
2022-12-15T08:54:19.238Z,46.33
2022-12-15T08:56:48.636Z,43.42
2022-12-15T08:59:17.034Z,38.67
2022-12-15T09:01:45.153Z,42.45
2022-12-15T09:04:13.971Z,39.92
2022-12-15T09:06:42.159Z,48.60
2022-12-15T09:09:13.198Z,45.50
2022-12-15T09:11:41.298Z,49.58
2022-12-15T09:14:10.924Z,47.75
2022-12-15T09:16:38.980Z,32.58
2022-12-15T09:19:08.455Z,45.92
2022-12-15T09:21:36.472Z,35.33
2022-12-15T09:24:05.251Z,34.22
2022-12-15T09:26:35.711Z,33.78
2022-12-15T09:29:03.940Z,31.58
2022-12-15T09:31:37.388Z,33.45
2022-12-15T09:34:05.361Z,32.08
2022-12-15T09:36:33.868Z,38.30
2022-12-15T09:39:03.390Z,33.13
2022-12-15T09:41:33.735Z,48.05
2022-12-15T09:44:04.914Z,37.03
2022-12-15T09:46:50.372Z,41.47
2022-12-15T09:49:30.717Z,43.08
2022-12-15T09:54:35.607Z,36.80
2022-12-15T09:57:08.894Z,37.20
2022-12-15T09:59:46.122Z,55.03
2022-12-15T10:02:39.482Z,49.65
2022-12-15T10:05:19.103Z,53.50
2022-12-15T10:07:50.495Z,46.55
2022-12-15T10:10:25.227Z,35.95
2022-12-15T10:13:02.357Z,33.58
2022-12-15T10:15:36.247Z,33.13
2022-12-15T10:18:14.599Z,30.90
2022-12-15T10:20:43.184Z,32.50
2022-12-15T10:23:13.397Z,33.45
2022-12-15T10:25:47.997Z,37.88
2022-12-15T10:28:45.205Z,38.10
2022-12-15T10:31:26.082Z,32.90
2022-12-15T10:33:58.904Z,33.13
2022-12-15T10:36:27.053Z,33.83
2022-12-15T10:38:54.919Z,30.98
2022-12-15T10:41:25.778Z,33.70
2022-12-15T10:43:55.263Z,32.40
2022-12-15T10:46:36.071Z,34.13
2022-12-15T10:49:23.317Z,33.65
2022-12-15T10:51:56.164Z,33.38
2022-12-15T10:54:27.788Z,31.02
2022-12-15T10:56:57.393Z,29.63
2022-12-15T10:59:30.846Z,29.33
2022-12-15T11:02:26.030Z,25.50
2022-12-15T11:04:58.269Z,26.17
2022-12-15T11:07:29.441Z,24.80
2022-12-15T11:10:00.460Z,24.58
2022-12-15T11:12:50.694Z,24.52
2022-12-15T11:15:44.178Z,23.77
2022-12-15T11:18:28.402Z,24.98
2022-12-15T11:21:05.671Z,26.17
2022-12-15T11:23:51.519Z,23.83
2022-12-15T11:26:39.071Z,23.83
2022-12-15T11:29:19.609Z,26.05
2022-12-15T11:31:48.846Z,24.67
2022-12-15T11:34:20.280Z,24.90
2022-12-15T11:37:09.479Z,23.17
2022-12-15T11:39:50.525Z,24.43
2022-12-15T11:42:31.944Z,24.77
2022-12-15T11:45:09.017Z,26.52
2022-12-15T11:47:44.955Z,24.65
2022-12-15T11:50:25.073Z,24.20
2022-12-15T11:53:09.640Z,23.75
2022-12-15T11:55:47.589Z,24.63
2022-12-15T11:58:55.233Z,24.40
2022-12-15T12:01:52.670Z,22.90
2022-12-15T12:04:26.503Z,24.55
2022-12-15T12:07:07.139Z,25.98
2022-12-15T12:09:38.579Z,25.40
2022-12-15T12:12:16.853Z,24.90
2022-12-15T12:15:08.943Z,31.05
2022-12-15T12:17:43.345Z,32.17
2022-12-15T12:20:18.838Z,30.45
2022-12-15T12:22:56.618Z,30.13
2022-12-15T12:25:27.840Z,26.27
2022-12-15T12:28:01.181Z,30.77
2022-12-15T12:30:36.272Z,29.33
2022-12-15T12:33:12.330Z,26.27
2022-12-15T12:35:47.362Z,25.77
2022-12-15T12:38:21.347Z,26.13
2022-12-15T12:41:04.154Z,25.73
2022-12-15T12:43:35.521Z,25.35
2022-12-15T12:46:11.518Z,24.73
2022-12-15T12:48:44.856Z,23.95
2022-12-15T12:51:28.613Z,25.17
2022-12-15T12:56:37.520Z,23.00
2022-12-15T12:59:26.687Z,23.23
2022-12-15T13:01:56.165Z,23.15
2022-12-15T13:04:40.511Z,23.50
2022-12-15T13:07:30.302Z,29.33
2022-12-15T13:10:13.743Z,25.83
2022-12-15T13:12:52.626Z,24.23
2022-12-15T13:15:36.107Z,24.73
2022-12-15T13:18:19.000Z,23.60
2022-12-15T13:20:50.963Z,23.25
2022-12-15T13:23:41.288Z,26.92
2022-12-15T13:28:50.705Z,27.85
2022-12-15T13:31:28.307Z,26.38
2022-12-15T13:34:02.483Z,45.33
2022-12-15T13:36:55.098Z,58.53
2022-12-15T13:39:52.861Z,53.15
2022-12-15T13:42:39.105Z,53.25
2022-12-15T13:45:36.757Z,44.35
2022-12-15T13:48:19.790Z,55.45
2022-12-15T13:50:53.954Z,32.88
2022-12-15T13:53:25.343Z,25.88
2022-12-15T13:56:19.717Z,25.52
2022-12-15T13:58:55.805Z,25.52
2022-12-15T14:01:32.255Z,28.55
2022-12-15T14:04:07.081Z,28.13
2022-12-15T14:06:41.784Z,28.67
2022-12-15T14:09:16.541Z,24.77
2022-12-15T14:11:55.016Z,24.25
2022-12-15T14:14:26.010Z,26.08
2022-12-15T14:16:59.653Z,26.17
2022-12-15T14:19:32.033Z,27.05
2022-12-15T14:22:03.706Z,26.48
2022-12-15T14:24:41.161Z,26.98
2022-12-15T14:27:09.831Z,26.70
2022-12-15T14:29:37.722Z,27.27
2022-12-15T14:32:07.553Z,25.65
2022-12-15T14:34:41.165Z,25.55
2022-12-15T14:37:13.500Z,28.50
2022-12-15T14:39:45.168Z,27.00
2022-12-15T14:42:19.967Z,26.05
2022-12-15T14:44:51.330Z,26.58
2022-12-15T14:47:26.961Z,25.88
2022-12-15T14:49:57.555Z,26.60
2022-12-15T14:52:29.516Z,24.88
2022-12-15T14:54:59.732Z,25.52
2022-12-15T14:59:56.570Z,27.90
2022-12-15T15:02:28.696Z,28.05
2022-12-15T15:05:02.416Z,29.17
2022-12-15T15:07:32.269Z,34.35
2022-12-15T15:10:01.944Z,32.65
2022-12-15T15:12:42.629Z,35.15
2022-12-15T15:15:17.094Z,28.15
2022-12-15T15:17:51.578Z,35.67
2022-12-15T15:20:22.579Z,34.53
2022-12-15T15:23:05.656Z,32.05
2022-12-15T15:25:41.495Z,36.63
2022-12-15T15:28:16.433Z,31.20
2022-12-15T15:30:48.702Z,35.67
2022-12-15T15:33:19.408Z,28.58
2022-12-15T15:35:52.036Z,31.52
2022-12-15T15:38:24.161Z,37.53
2022-12-15T15:40:54.739Z,34.90
2022-12-15T15:43:24.046Z,37.90
2022-12-15T15:45:59.091Z,38.33
2022-12-15T15:48:31.181Z,32.92
2022-12-15T15:51:01.762Z,34.25
2022-12-15T15:53:32.894Z,44.72
2022-12-15T15:56:02.115Z,36.65
2022-12-15T15:58:30.364Z,37.33
2022-12-15T16:00:58.690Z,37.00
2022-12-15T16:03:28.374Z,34.95
2022-12-15T16:05:57.347Z,33.58
2022-12-15T16:08:31.212Z,34.00
2022-12-15T16:10:59.453Z,31.80
2022-12-15T16:13:27.919Z,31.65
2022-12-15T16:15:56.298Z,35.17
2022-12-15T16:18:24.253Z,42.50
2022-12-15T16:20:53.952Z,42.10
2022-12-15T16:23:24.961Z,67.68
2022-12-15T16:25:55.321Z,87.35
2022-12-15T16:28:25.273Z,76.15
2022-12-15T16:30:53.792Z,57.13
2022-12-15T16:33:22.387Z,53.55
2022-12-15T16:35:51.568Z,48.97
2022-12-15T16:38:25.579Z,59.42
2022-12-15T16:40:55.456Z,52.60
2022-12-15T16:45:54.455Z,47.83
2022-12-15T16:48:22.835Z,46.35
2022-12-15T16:50:53.264Z,48.50
2022-12-15T16:53:28.215Z,41.85
2022-12-15T16:55:59.815Z,43.90
2022-12-15T16:58:29.929Z,44.42
2022-12-15T17:00:58.500Z,41.28
2022-12-15T17:03:27.879Z,50.15
2022-12-15T17:05:57.619Z,43.13
2022-12-15T17:08:30.997Z,47.22
2022-12-15T17:10:59.696Z,48.65
2022-12-15T17:13:37.819Z,44.92
2022-12-15T17:16:14.277Z,46.08
2022-12-15T17:18:42.924Z,43.50
2022-12-15T17:21:17.108Z,42.25
2022-12-15T17:23:49.572Z,44.17
2022-12-15T17:26:29.058Z,40.50
2022-12-15T17:29:00.127Z,41.92
2022-12-15T17:31:34.714Z,39.58
2022-12-15T17:34:22.610Z,43.75
2022-12-15T17:36:50.825Z,39.33
2022-12-15T17:39:21.610Z,34.88
2022-12-15T17:42:05.928Z,34.78
2022-12-15T17:44:38.276Z,39.47
2022-12-15T17:47:09.190Z,33.78
2022-12-15T17:49:38.632Z,41.28
2022-12-15T17:52:13.577Z,58.00
2022-12-15T17:54:43.247Z,65.75
2022-12-15T17:57:12.895Z,57.45
2022-12-15T17:59:40.816Z,57.45
2022-12-15T18:02:12.015Z,59.42
2022-12-15T18:04:40.431Z,54.78
2022-12-15T18:07:15.016Z,48.95
2022-12-15T18:09:44.262Z,48.25
2022-12-15T18:12:18.870Z,46.40
2022-12-15T18:14:46.739Z,40.72
2022-12-15T18:17:14.944Z,41.58
2022-12-15T18:19:42.825Z,39.40
2022-12-15T18:22:14.313Z,42.60
2022-12-15T18:24:42.274Z,50.22
2022-12-15T18:27:21.703Z,47.40
2022-12-15T18:29:49.641Z,43.28
2022-12-15T18:32:18.476Z,46.55
2022-12-15T18:34:46.932Z,46.13
2022-12-15T18:37:17.470Z,44.28
2022-12-15T18:39:46.139Z,60.60
2022-12-15T18:42:18.729Z,54.42
2022-12-15T18:44:49.928Z,51.63
2022-12-15T18:47:19.294Z,47.55
2022-12-15T18:49:47.436Z,44.08
2022-12-15T18:52:18.792Z,45.42
2022-12-15T18:54:48.069Z,45.83
2022-12-15T18:57:30.355Z,48.20
2022-12-15T18:59:59.940Z,123.97
2022-12-15T19:02:28.013Z,112.57
2022-12-15T19:04:56.033Z,90.80
2022-12-15T19:07:24.045Z,87.20
2022-12-15T19:09:52.136Z,89.28
2022-12-15T19:12:20.061Z,80.80
2022-12-15T19:14:51.759Z,84.25
2022-12-15T19:17:39.127Z,76.43
2022-12-15T19:20:33.028Z,70.30
2022-12-15T19:23:00.965Z,66.63
2022-12-15T19:25:30.539Z,57.25
2022-12-15T19:28:00.087Z,57.30
2022-12-15T19:30:33.152Z,55.58
2022-12-15T19:33:04.333Z,52.72
2022-12-15T19:35:33.376Z,48.90
2022-12-15T19:38:04.525Z,43.10
2022-12-15T19:40:36.496Z,42.83
2022-12-15T19:43:05.177Z,41.83
2022-12-15T19:45:34.848Z,38.63
2022-12-15T19:48:02.784Z,36.42
2022-12-15T19:50:36.278Z,103.07
2022-12-15T19:53:08.224Z,100.82
2022-12-15T19:55:37.308Z,77.85
2022-12-15T19:58:22.242Z,82.43
2022-12-15T20:00:55.892Z,87.07
2022-12-15T20:03:23.934Z,90.30
2022-12-15T20:05:53.671Z,76.07
2022-12-15T20:08:24.626Z,80.30
2022-12-15T20:10:53.895Z,73.88
2022-12-15T20:13:22.691Z,100.45
2022-12-15T20:15:50.856Z,75.80
2022-12-15T20:18:20.300Z,73.22
2022-12-15T20:20:49.978Z,68.55
2022-12-15T20:23:20.609Z,63.05
2022-12-15T20:25:48.648Z,67.18
2022-12-15T20:28:20.204Z,61.38
2022-12-15T20:30:48.816Z,61.78
2022-12-15T20:33:17.324Z,59.63
2022-12-15T20:35:48.172Z,64.70
2022-12-15T20:38:20.923Z,60.38
2022-12-15T20:40:49.196Z,55.10
2022-12-15T20:43:20.490Z,55.30
2022-12-15T20:45:56.345Z,54.70
2022-12-15T20:48:26.598Z,52.50
2022-12-15T20:50:55.885Z,53.22
2022-12-15T20:53:26.556Z,54.63
2022-12-15T20:55:56.094Z,53.50
2022-12-15T20:58:29.769Z,50.33
2022-12-15T21:01:00.966Z,51.67
2022-12-15T21:03:31.517Z,49.33
2022-12-15T21:06:01.560Z,54.25
2022-12-15T21:08:32.024Z,63.78
2022-12-15T21:11:08.456Z,67.22
2022-12-15T21:13:36.608Z,62.22
2022-12-15T21:16:04.605Z,62.00
2022-12-15T21:21:27.269Z,63.03
2022-12-15T21:23:56.182Z,60.63
2022-12-15T21:26:25.919Z,64.30
2022-12-15T21:28:59.071Z,59.22
2022-12-15T21:31:27.401Z,56.88
2022-12-15T21:33:55.621Z,58.75
2022-12-15T21:36:25.497Z,67.43
2022-12-15T21:41:24.392Z,61.33
2022-12-15T21:43:52.576Z,64.97
2022-12-15T21:46:28.399Z,49.40
2022-12-15T21:49:14.414Z,35.83
2022-12-15T21:51:46.627Z,34.35
2022-12-15T21:54:19.251Z,35.05
2022-12-15T21:56:48.546Z,32.45
2022-12-15T21:59:19.900Z,31.45
2022-12-15T22:01:48.532Z,40.13
2022-12-15T22:04:19.642Z,39.45
2022-12-15T22:06:50.877Z,39.97
2022-12-15T22:09:21.145Z,43.42
2022-12-15T22:11:52.904Z,72.65
2022-12-15T22:14:26.335Z,64.93
2022-12-15T22:16:55.847Z,63.55
2022-12-15T22:19:24.102Z,45.30
2022-12-15T22:21:53.526Z,50.97
2022-12-15T22:24:21.686Z,55.78
2022-12-15T22:26:50.044Z,58.20
2022-12-15T22:29:21.726Z,54.20
2022-12-15T22:31:50.670Z,56.17
2022-12-15T22:34:21.638Z,46.83
2022-12-15T22:36:50.794Z,46.33
2022-12-15T22:39:21.613Z,44.33
2022-12-15T22:41:52.323Z,45.65
2022-12-15T22:44:23.956Z,45.40
2022-12-15T22:46:54.881Z,44.03
2022-12-15T22:49:26.151Z,44.33
2022-12-15T22:51:54.938Z,44.38
2022-12-15T22:54:26.766Z,43.30
2022-12-15T22:56:58.727Z,47.10
2022-12-15T22:59:31.495Z,44.13
2022-12-15T23:02:00.013Z,48.08
2022-12-15T23:04:28.007Z,43.30
2022-12-15T23:06:56.056Z,44.83
2022-12-15T23:09:25.447Z,43.65
2022-12-15T23:11:52.566Z,45.22
2022-12-15T23:14:40.711Z,42.38
2022-12-15T23:17:07.741Z,41.97
2022-12-15T23:19:36.584Z,43.70
2022-12-15T23:22:05.226Z,46.92
2022-12-15T23:24:37.582Z,46.65
2022-12-15T23:27:05.514Z,53.90
2022-12-15T23:29:33.469Z,51.00
2022-12-15T23:32:01.727Z,47.47
2022-12-15T23:34:29.620Z,47.80
2022-12-15T23:36:58.225Z,44.22
2022-12-15T23:39:26.225Z,45.67
2022-12-15T23:41:55.463Z,45.38
2022-12-15T23:44:23.413Z,45.60
2022-12-15T23:46:51.701Z,47.30
2022-12-15T23:49:19.585Z,44.38
2022-12-15T23:51:48.346Z,45.22
2022-12-15T23:54:16.780Z,54.75
2022-12-15T23:56:44.697Z,48.55
2022-12-15T23:59:14.173Z,46.58
